createdAt,value
2019-01-11T00:03:57.451Z,86.72
2019-01-11T00:09:03.002Z,87.11
2019-01-11T00:14:08.625Z,87.28
2019-01-11T00:19:18.322Z,87.28
2019-01-11T00:24:23.955Z,87.38
2019-01-11T00:29:31.549Z,87.47
2019-01-11T00:34:37.160Z,87.43
2019-01-11T00:39:42.685Z,87.19
2019-01-11T00:44:48.165Z,87.11
2019-01-11T00:49:53.515Z,87.08
2019-01-11T00:55:01.050Z,86.98
2019-01-11T01:00:10.055Z,86.94
2019-01-11T01:05:15.746Z,86.40
2019-01-11T01:10:22.806Z,85.98
2019-01-11T01:15:28.610Z,85.63
2019-01-11T01:20:36.661Z,85.23
2019-01-11T01:25:42.230Z,85.06
2019-01-11T01:30:47.737Z,84.94
2019-01-11T01:35:53.190Z,84.92
2019-01-11T01:40:58.615Z,84.73
2019-01-11T01:46:04.205Z,84.69
2019-01-11T01:56:27.670Z,84.66
2019-01-11T02:01:33.310Z,84.63
2019-01-11T02:06:40.955Z,84.76
2019-01-11T02:11:48.969Z,84.75
2019-01-11T02:16:56.689Z,84.62
2019-01-11T02:22:02.121Z,84.53
2019-01-11T02:27:07.939Z,84.24
2019-01-11T02:32:13.469Z,84.00
2019-01-11T02:37:19.029Z,83.86
2019-01-11T02:42:24.611Z,83.49
2019-01-11T02:47:30.105Z,83.18
2019-01-11T02:52:35.760Z,83.09
2019-01-11T02:57:43.589Z,83.04
2019-01-11T03:02:49.173Z,82.90
2019-01-11T03:07:56.922Z,82.33
2019-01-11T03:13:02.354Z,82.03
2019-01-11T03:18:09.987Z,82.12
2019-01-11T03:23:15.582Z,81.83
2019-01-11T03:28:21.006Z,81.33
2019-01-11T03:33:29.205Z,80.72
2019-01-11T03:38:34.645Z,80.23
2019-01-11T03:43:40.060Z,80.42
2019-01-11T03:48:47.589Z,80.89
2019-01-11T03:53:53.064Z,81.17
2019-01-11T03:58:58.688Z,81.08
2019-01-11T04:04:04.356Z,81.03
2019-01-11T04:09:11.616Z,81.28
2019-01-11T04:14:16.994Z,81.10
2019-01-11T04:19:22.588Z,81.05
2019-01-11T04:24:29.691Z,80.99
2019-01-11T04:29:35.146Z,81.02
2019-01-11T04:34:40.630Z,80.28
2019-01-11T04:39:48.269Z,79.35
2019-01-11T04:44:55.948Z,79.07
2019-01-11T04:50:01.483Z,78.80
2019-01-11T04:55:11.868Z,78.02
2019-01-11T05:00:20.591Z,77.60
2019-01-11T05:05:26.674Z,78.15
2019-01-11T05:10:34.335Z,78.19
2019-01-11T05:15:44.070Z,78.27
2019-01-11T05:21:13.374Z,79.68
2019-01-11T05:26:18.765Z,80.45
2019-01-11T05:31:26.250Z,81.10
2019-01-11T05:36:35.746Z,81.57
2019-01-11T05:41:43.502Z,81.11
2019-01-11T05:46:49.013Z,80.42
2019-01-11T05:51:56.634Z,79.83
2019-01-11T05:57:02.164Z,79.69
2019-01-11T06:02:07.721Z,78.88
2019-01-11T06:07:25.839Z,78.72
2019-01-11T06:12:31.395Z,79.56
2019-01-11T06:17:39.340Z,80.35
2019-01-11T06:22:44.802Z,80.58
2019-01-11T06:27:52.355Z,79.97
2019-01-11T06:32:57.934Z,79.98
2019-01-11T06:38:03.474Z,79.50
2019-01-11T06:43:09.011Z,78.87
2019-01-11T06:48:27.274Z,78.70
2019-01-11T06:53:36.844Z,78.18
2019-01-11T06:58:44.499Z,77.30
2019-01-11T07:03:49.965Z,77.17
2019-01-11T07:08:57.580Z,76.26
2019-01-11T07:14:03.024Z,75.69
2019-01-11T07:19:08.649Z,75.11
2019-01-11T07:24:14.144Z,75.06
2019-01-11T07:29:23.924Z,74.13
2019-01-11T07:34:35.839Z,73.61
2019-01-11T07:39:41.449Z,69.62
2019-01-11T07:44:44.276Z,70.14
2019-01-11T07:49:49.030Z,70.86
2019-01-11T07:54:51.801Z,67.77
2019-01-11T07:59:58.687Z,68.33
2019-01-11T08:05:01.280Z,68.16
2019-01-11T08:10:07.434Z,64.76
2019-01-11T08:15:10.487Z,64.35
2019-01-11T08:20:13.461Z,63.22
2019-01-11T08:25:16.788Z,65.35
2019-01-11T08:30:21.448Z,64.81
2019-01-11T08:35:24.324Z,65.65
2019-01-11T08:40:29.094Z,66.64
2019-01-11T08:45:31.884Z,66.51
2019-01-11T08:50:40.834Z,66.82
2019-01-11T08:55:43.634Z,67.23
2019-01-11T09:00:46.403Z,67.08
2019-01-11T09:05:51.544Z,67.19
2019-01-11T09:10:58.285Z,68.13
2019-01-11T09:16:03.065Z,69.00
2019-01-11T09:21:11.378Z,70.00
2019-01-11T09:26:16.228Z,70.01
2019-01-11T09:31:19.748Z,70.01
2019-01-11T09:36:22.524Z,70.70
2019-01-11T09:41:25.208Z,70.20
2019-01-11T09:46:28.165Z,70.62
2019-01-11T09:51:35.114Z,69.40
2019-01-11T09:56:39.983Z,69.45
2019-01-11T10:01:46.581Z,69.99
2019-01-11T10:07:01.379Z,70.24
2019-01-11T10:12:06.354Z,69.98
2019-01-11T10:17:11.259Z,69.60
2019-01-11T10:22:18.095Z,70.07
2019-01-11T10:27:20.844Z,70.19
2019-01-11T10:32:23.518Z,69.61
2019-01-11T10:37:26.204Z,70.43
2019-01-11T10:42:28.879Z,70.75
2019-01-11T10:47:31.918Z,70.87
2019-01-11T10:52:37.156Z,69.94
2019-01-11T10:57:39.988Z,69.67
2019-01-11T11:02:42.761Z,70.39
2019-01-11T11:07:45.664Z,70.51
2019-01-11T11:12:50.665Z,70.34
2019-01-11T11:17:53.535Z,70.63
2019-01-11T11:22:56.932Z,71.08
2019-01-11T11:28:01.788Z,70.21
2019-01-11T11:33:11.237Z,70.11
2019-01-11T11:38:16.469Z,70.14
2019-01-11T11:43:23.205Z,70.12
2019-01-11T11:48:25.965Z,69.86
2019-01-11T11:53:32.728Z,70.06
2019-01-11T11:58:35.563Z,70.02
2019-01-11T12:03:40.302Z,70.04
2019-01-11T12:08:43.004Z,69.59
2019-01-11T12:13:45.709Z,69.94
2019-01-11T12:18:50.595Z,69.78
2019-01-11T12:23:53.268Z,69.07
2019-01-11T12:28:57.952Z,69.27
2019-01-11T12:34:01.009Z,69.00
2019-01-11T12:39:06.734Z,67.71
2019-01-11T12:44:09.383Z,67.80
2019-01-11T12:49:12.089Z,68.42
2019-01-11T12:54:16.924Z,69.22
2019-01-11T12:59:23.664Z,71.22
2019-01-11T13:04:26.471Z,71.74
2019-01-11T13:09:29.139Z,72.62
2019-01-11T13:14:31.844Z,72.88
2019-01-11T13:19:34.607Z,72.78
2019-01-11T13:24:37.616Z,72.40
2019-01-11T13:29:42.394Z,72.41
2019-01-11T13:34:47.139Z,72.23
2019-01-11T13:39:51.879Z,71.90
2019-01-11T13:44:58.644Z,71.97
2019-01-11T13:50:01.795Z,71.81
2019-01-11T13:55:12.696Z,71.47
2019-01-11T14:00:17.619Z,71.27
2019-01-11T14:05:22.393Z,71.41
2019-01-11T14:10:27.273Z,72.04
2019-01-11T14:15:32.341Z,72.63
2019-01-11T14:20:35.339Z,72.78
2019-01-11T14:25:38.202Z,72.72
2019-01-11T14:30:42.858Z,72.54
2019-01-11T14:35:47.649Z,72.92
2019-01-11T14:40:50.428Z,73.17
2019-01-11T14:45:53.238Z,73.43
2019-01-11T14:50:58.034Z,74.23
2019-01-11T14:56:03.168Z,74.31
2019-01-11T15:01:05.789Z,74.15
2019-01-11T15:06:10.665Z,73.99
2019-01-11T15:11:15.376Z,74.20
2019-01-11T15:16:18.074Z,74.86
2019-01-11T15:21:22.846Z,74.69
2019-01-11T15:26:25.701Z,74.61
2019-01-11T15:31:30.459Z,74.94
2019-01-11T15:36:33.097Z,74.70
2019-01-11T15:41:36.029Z,74.66
2019-01-11T15:46:38.735Z,74.02
2019-01-11T15:51:41.620Z,73.73
2019-01-11T15:56:48.443Z,72.84
2019-01-11T16:01:54.156Z,71.36
2019-01-11T16:06:58.819Z,71.45
2019-01-11T16:12:06.428Z,69.12
2019-01-11T16:17:14.105Z,66.33
2019-01-11T16:22:21.119Z,66.99
2019-01-11T16:27:23.839Z,65.21
2019-01-11T16:32:28.830Z,62.21
2019-01-11T16:37:31.670Z,68.28
2019-01-11T16:42:38.839Z,70.55
2019-01-11T16:47:43.174Z,69.51
2019-01-11T16:52:46.587Z,69.39
2019-01-11T16:57:51.589Z,70.50
2019-01-11T17:02:58.414Z,73.04
2019-01-11T17:08:03.342Z,73.95
2019-01-11T17:13:08.174Z,74.37
2019-01-11T17:18:10.868Z,70.46
2019-01-11T17:23:17.774Z,65.89
2019-01-11T17:28:22.728Z,65.18
2019-01-11T17:33:25.470Z,66.79
2019-01-11T17:38:30.122Z,66.45
2019-01-11T17:43:35.010Z,63.04
2019-01-11T17:48:39.145Z,62.55
2019-01-11T17:53:44.044Z,64.56
2019-01-11T17:58:46.889Z,68.57
2019-01-11T18:03:51.754Z,70.53
2019-01-11T18:08:54.413Z,71.64
2019-01-11T18:13:57.100Z,72.45
2019-01-11T18:18:59.809Z,72.64
2019-01-11T18:24:04.638Z,73.53
2019-01-11T18:29:09.694Z,75.45
2019-01-11T18:34:17.470Z,76.91
2019-01-11T18:39:20.324Z,77.89
2019-01-11T18:44:25.072Z,78.37
2019-01-11T18:49:29.870Z,79.22
2019-01-11T18:54:32.706Z,79.65
2019-01-11T18:59:41.725Z,80.22
2019-01-11T19:04:46.444Z,80.83
2019-01-11T19:09:49.249Z,79.76
2019-01-11T19:14:53.979Z,78.90
2019-01-11T19:19:56.574Z,78.65
2019-01-11T19:24:59.335Z,78.62
2019-01-11T19:30:02.099Z,78.43
2019-01-11T19:35:05.354Z,78.11
2019-01-11T19:40:13.313Z,77.31
2019-01-11T19:45:20.328Z,77.86
2019-01-11T19:50:24.186Z,78.10
2019-01-11T19:55:28.994Z,77.97
2019-01-11T20:00:33.888Z,77.93
2019-01-11T20:05:38.684Z,78.31
2019-01-11T20:10:41.631Z,78.95
2019-01-11T20:15:46.418Z,79.27
2019-01-11T20:20:51.275Z,79.29
2019-01-11T20:25:56.076Z,79.09
2019-01-11T20:30:58.873Z,79.21
2019-01-11T20:36:01.552Z,79.72
2019-01-11T20:41:04.479Z,80.05
2019-01-11T20:46:09.528Z,79.87
2019-01-11T20:51:12.132Z,79.82
2019-01-11T20:56:18.936Z,81.11
2019-01-11T21:01:22.359Z,81.22
2019-01-11T21:06:27.089Z,81.67
2019-01-11T21:16:42.730Z,81.50
2019-01-11T21:21:47.494Z,81.57
2019-01-11T21:26:50.295Z,82.32
2019-01-11T21:31:55.087Z,82.18
2019-01-11T21:36:57.844Z,82.39
2019-01-11T21:42:00.529Z,82.69
2019-01-11T21:47:03.379Z,83.96
2019-01-11T21:52:08.015Z,84.05
2019-01-11T21:57:12.785Z,83.81
2019-01-11T22:02:19.538Z,83.44
2019-01-11T22:07:24.274Z,83.12
2019-01-11T22:12:30.979Z,82.79
2019-01-11T22:17:33.874Z,82.80
2019-01-11T22:22:36.479Z,82.69
2019-01-11T22:27:39.192Z,82.58
2019-01-11T22:32:41.959Z,82.38
2019-01-11T22:37:44.670Z,82.49
2019-01-11T22:42:51.454Z,82.31
2019-01-11T22:47:56.218Z,82.94
2019-01-11T22:53:03.093Z,84.50
2019-01-11T22:58:05.899Z,85.39
2019-01-11T23:03:19.085Z,86.01
2019-01-11T23:08:22.034Z,86.49
2019-01-11T23:13:24.643Z,86.76
2019-01-11T23:18:30.955Z,86.36
2019-01-11T23:23:33.642Z,86.20
2019-01-11T23:28:38.404Z,86.26
2019-01-11T23:33:41.075Z,86.09
2019-01-11T23:38:43.714Z,86.76
2019-01-11T23:43:50.605Z,87.44
2019-01-11T23:48:55.375Z,87.82
2019-01-11T23:54:00.079Z,87.96
2019-01-11T23:59:04.934Z,88.01
